createdAt,value
2018-03-23T00:01:37.440Z,24.70
2018-03-23T00:04:05.019Z,24.20
2018-03-23T00:06:32.615Z,24.87
2018-03-23T00:09:00.189Z,25.07
2018-03-23T00:11:27.770Z,28.00
2018-03-23T00:13:56.124Z,24.73
2018-03-23T00:16:23.685Z,24.60
2018-03-23T00:18:54.609Z,24.83
2018-03-23T00:21:22.196Z,26.20
2018-03-23T00:23:50.514Z,32.10
2018-03-23T00:26:18.063Z,27.63
2018-03-23T00:28:45.647Z,25.77
2018-03-23T00:31:13.201Z,27.23
2018-03-23T00:33:40.752Z,24.70
2018-03-23T00:36:08.324Z,29.13
2018-03-23T00:38:35.894Z,28.03
2018-03-23T00:41:03.457Z,27.03
2018-03-23T00:43:31.060Z,28.00
2018-03-23T00:45:59.398Z,28.80
2018-03-23T00:48:26.956Z,27.37
2018-03-23T00:50:54.544Z,26.07
2018-03-23T00:53:22.112Z,34.17
2018-03-23T00:55:49.663Z,28.53
2018-03-23T00:58:17.264Z,27.27
2018-03-23T01:00:44.843Z,30.43
2018-03-23T01:03:12.398Z,26.30
2018-03-23T01:05:39.966Z,22.20
2018-03-23T01:08:07.515Z,36.50
2018-03-23T01:10:35.068Z,27.37
2018-03-23T01:13:02.666Z,28.47
2018-03-23T01:15:30.223Z,30.30
2018-03-23T01:17:57.781Z,30.83
2018-03-23T01:20:25.384Z,25.70
2018-03-23T01:22:53.706Z,26.23
2018-03-23T01:25:22.123Z,26.90
2018-03-23T01:27:49.701Z,25.20
2018-03-23T01:30:18.028Z,24.77
2018-03-23T01:32:45.592Z,25.13
2018-03-23T01:35:13.251Z,30.53
2018-03-23T01:37:40.800Z,30.10
2018-03-23T01:40:08.374Z,28.37
2018-03-23T01:42:35.955Z,28.80
2018-03-23T01:45:03.511Z,29.97
2018-03-23T01:47:31.828Z,29.53
2018-03-23T01:50:00.188Z,29.33
2018-03-23T01:52:27.752Z,32.53
2018-03-23T01:54:55.307Z,31.17
2018-03-23T01:57:22.882Z,26.97
2018-03-23T01:59:51.199Z,31.50
2018-03-23T02:02:18.767Z,27.20
2018-03-23T02:04:46.344Z,29.23
2018-03-23T02:07:13.924Z,29.80
2018-03-23T02:09:41.470Z,26.27
2018-03-23T02:12:09.051Z,28.00
2018-03-23T02:14:36.588Z,31.97
2018-03-23T02:17:04.189Z,30.30
2018-03-23T02:19:31.743Z,29.47
2018-03-23T02:22:00.051Z,29.90
2018-03-23T02:24:27.622Z,29.20
2018-03-23T02:26:55.174Z,29.30
2018-03-23T02:29:22.742Z,29.60
2018-03-23T02:31:50.298Z,30.17
2018-03-23T02:34:17.851Z,31.50
2018-03-23T02:36:45.531Z,29.50
2018-03-23T02:39:13.090Z,28.43
2018-03-23T02:41:41.707Z,28.73
2018-03-23T02:44:09.270Z,28.77
2018-03-23T02:46:36.827Z,26.80
2018-03-23T02:49:04.418Z,25.93
2018-03-23T02:51:32.751Z,27.37
2018-03-23T02:54:00.344Z,24.43
2018-03-23T02:56:27.899Z,27.67
2018-03-23T02:58:55.469Z,28.13
2018-03-23T03:01:23.820Z,25.50
2018-03-23T03:03:51.375Z,27.37
2018-03-23T03:06:18.947Z,23.27
2018-03-23T03:08:46.496Z,25.03
2018-03-23T03:11:14.054Z,24.87
2018-03-23T03:13:42.548Z,25.90
2018-03-23T03:16:10.111Z,24.77
2018-03-23T03:18:37.697Z,25.63
2018-03-23T03:21:06.030Z,25.67
2018-03-23T03:23:33.630Z,25.60
2018-03-23T03:26:01.982Z,26.27
2018-03-23T03:28:29.535Z,28.67
2018-03-23T03:30:57.103Z,27.23
2018-03-23T03:33:24.648Z,25.30
2018-03-23T03:35:52.192Z,27.07
2018-03-23T03:38:27.599Z,28.57
2018-03-23T03:40:55.914Z,27.67
2018-03-23T03:43:23.518Z,30.07
2018-03-23T03:45:51.089Z,24.30
2018-03-23T03:48:18.630Z,31.93
2018-03-23T03:50:46.206Z,28.77
2018-03-23T03:53:13.753Z,28.67
2018-03-23T03:55:41.352Z,29.23
2018-03-23T03:58:10.588Z,30.73
2018-03-23T04:00:38.163Z,31.20
2018-03-23T04:03:05.757Z,29.07
2018-03-23T04:05:34.098Z,29.60
2018-03-23T04:08:01.687Z,31.63
2018-03-23T04:10:29.233Z,28.47
2018-03-23T04:12:56.798Z,28.93
2018-03-23T04:15:24.386Z,27.07
2018-03-23T04:17:52.700Z,28.67
2018-03-23T04:20:20.282Z,24.07
2018-03-23T04:22:47.840Z,25.90
2018-03-23T04:25:15.393Z,25.43
2018-03-23T04:27:42.979Z,27.73
2018-03-23T04:30:10.536Z,24.77
2018-03-23T04:32:38.124Z,27.23
2018-03-23T04:35:06.546Z,24.30
2018-03-23T04:37:34.113Z,27.07
2018-03-23T04:40:01.700Z,26.30
2018-03-23T04:42:29.593Z,23.57
2018-03-23T04:44:57.943Z,24.83
2018-03-23T04:47:25.522Z,26.37
2018-03-23T04:49:53.114Z,22.17
2018-03-23T04:52:20.864Z,27.00
2018-03-23T04:54:49.178Z,27.03
2018-03-23T04:57:16.942Z,28.03
2018-03-23T04:59:44.609Z,23.17
2018-03-23T05:02:12.173Z,24.07
2018-03-23T05:04:39.755Z,23.17
2018-03-23T05:07:07.604Z,21.80
2018-03-23T05:09:35.227Z,24.10
2018-03-23T05:12:02.786Z,27.07
2018-03-23T05:14:31.137Z,23.80
2018-03-23T05:16:59.392Z,22.50
2018-03-23T05:19:28.877Z,24.00
2018-03-23T05:21:58.407Z,23.70
2018-03-23T05:24:27.976Z,24.43
2018-03-23T05:26:55.544Z,25.67
2018-03-23T05:29:23.098Z,25.90
2018-03-23T05:31:50.640Z,25.63
2018-03-23T05:34:18.963Z,23.80
2018-03-23T05:36:47.277Z,23.50
2018-03-23T05:39:14.861Z,23.67
2018-03-23T05:41:42.423Z,22.17
2018-03-23T05:44:10.001Z,24.40
2018-03-23T05:46:37.546Z,24.97
2018-03-23T05:49:05.161Z,26.77
2018-03-23T05:51:32.744Z,23.03
2018-03-23T05:54:01.098Z,25.23
2018-03-23T05:56:28.673Z,26.60
2018-03-23T05:58:56.236Z,25.10
2018-03-23T06:01:23.792Z,28.60
2018-03-23T06:03:51.371Z,24.13
2018-03-23T06:06:19.702Z,22.50
2018-03-23T06:08:47.287Z,25.97
2018-03-23T06:11:14.850Z,23.33
2018-03-23T06:13:42.410Z,24.90
2018-03-23T06:16:09.979Z,25.87
2018-03-23T06:18:37.534Z,22.43
2018-03-23T06:21:05.166Z,26.03
2018-03-23T06:23:32.732Z,23.27
2018-03-23T06:26:00.287Z,24.70
2018-03-23T06:28:27.870Z,30.93
2018-03-23T06:30:55.423Z,27.17
2018-03-23T06:33:23.003Z,29.90
2018-03-23T06:35:51.339Z,27.53
2018-03-23T06:38:18.879Z,29.30
2018-03-23T06:40:46.449Z,29.00
2018-03-23T06:43:13.997Z,30.80
2018-03-23T06:45:41.588Z,25.10
2018-03-23T06:48:09.143Z,26.10
2018-03-23T06:50:36.702Z,26.00
2018-03-23T06:53:04.285Z,26.67
2018-03-23T06:55:31.847Z,24.13
2018-03-23T06:57:59.433Z,25.70
2018-03-23T07:00:27.750Z,23.13
2018-03-23T07:02:55.294Z,21.83
2018-03-23T07:05:22.875Z,23.70
2018-03-23T07:07:50.427Z,22.17
2018-03-23T07:10:18.008Z,27.30
2018-03-23T07:12:45.551Z,22.47
2018-03-23T07:15:13.102Z,19.97
2018-03-23T07:17:40.671Z,19.20
2018-03-23T07:20:08.219Z,18.60
2018-03-23T07:22:35.833Z,19.53
2018-03-23T07:25:03.808Z,18.50
2018-03-23T07:27:31.358Z,15.70
2018-03-23T07:29:58.953Z,17.73
2018-03-23T07:32:27.269Z,16.63
2018-03-23T07:34:54.849Z,16.73
2018-03-23T07:37:22.407Z,19.73
2018-03-23T07:39:49.952Z,20.47
2018-03-23T07:42:17.535Z,25.90
2018-03-23T07:44:45.116Z,19.90
2018-03-23T07:47:24.002Z,19.63
2018-03-23T07:49:51.655Z,15.90
2018-03-23T07:52:19.217Z,19.40
2018-03-23T07:54:46.809Z,17.63
2018-03-23T07:57:14.370Z,17.33
2018-03-23T07:59:41.954Z,18.90
2018-03-23T08:02:10.271Z,17.87
2018-03-23T08:04:37.858Z,17.50
2018-03-23T08:07:05.449Z,15.00
2018-03-23T08:09:33.777Z,13.57
2018-03-23T08:12:01.355Z,15.60
2018-03-23T08:14:34.591Z,14.00
2018-03-23T08:17:02.172Z,9.67
2018-03-23T08:19:29.712Z,10.33
2018-03-23T08:21:58.025Z,11.40
2018-03-23T08:24:27.547Z,10.27
2018-03-23T08:26:55.097Z,11.20
2018-03-23T08:29:22.671Z,12.80
2018-03-23T08:31:50.236Z,12.83
2018-03-23T08:34:17.788Z,15.27
2018-03-23T08:36:45.359Z,11.53
2018-03-23T08:39:12.908Z,10.37
2018-03-23T08:41:40.480Z,11.37
2018-03-23T08:44:08.030Z,15.07
2018-03-23T08:46:35.675Z,11.90
2018-03-23T08:49:03.250Z,10.77
2018-03-23T08:51:30.801Z,12.90
2018-03-23T08:53:58.426Z,11.10
2018-03-23T08:56:26.749Z,9.80
2018-03-23T08:58:54.343Z,10.90
2018-03-23T09:01:21.922Z,11.00
2018-03-23T09:03:50.250Z,10.57
2018-03-23T09:06:17.817Z,10.03
2018-03-23T09:08:45.379Z,13.20
2018-03-23T09:11:12.937Z,12.83
2018-03-23T09:13:40.523Z,17.10
2018-03-23T09:16:08.083Z,11.40
2018-03-23T09:18:35.681Z,11.77
2018-03-23T09:21:03.244Z,11.03
2018-03-23T09:23:30.782Z,10.87
2018-03-23T09:25:59.127Z,8.50
2018-03-23T09:28:26.702Z,8.37
2018-03-23T09:30:54.271Z,6.73
2018-03-23T09:33:21.835Z,6.73
2018-03-23T09:35:50.265Z,6.30
2018-03-23T09:38:17.855Z,6.30
2018-03-23T09:43:19.402Z,7.37
2018-03-23T09:45:46.951Z,9.53
2018-03-23T09:48:14.511Z,8.20
2018-03-23T09:50:42.094Z,8.37
2018-03-23T09:53:09.654Z,8.00
2018-03-23T09:55:37.294Z,6.40
2018-03-23T09:58:04.851Z,7.30
2018-03-23T10:00:32.407Z,7.13
2018-03-23T10:02:59.979Z,9.40
2018-03-23T10:05:27.538Z,7.50
2018-03-23T10:07:55.132Z,8.57
2018-03-23T10:10:23.473Z,9.00
2018-03-23T10:12:51.016Z,8.90
2018-03-23T10:15:18.695Z,11.50
2018-03-23T10:17:46.263Z,11.30
2018-03-23T10:20:13.858Z,10.00
2018-03-23T10:22:43.418Z,10.10
2018-03-23T10:25:10.989Z,12.30
2018-03-23T10:27:38.561Z,11.53
2018-03-23T10:30:06.126Z,8.93
2018-03-23T10:32:33.704Z,16.80
2018-03-23T10:35:01.272Z,9.93
2018-03-23T10:37:28.828Z,8.60
2018-03-23T10:39:56.464Z,8.60
2018-03-23T10:42:24.030Z,8.30
2018-03-23T10:44:51.610Z,8.53
2018-03-23T10:47:19.160Z,8.00
2018-03-23T10:49:46.731Z,8.50
2018-03-23T10:52:14.320Z,8.40
2018-03-23T10:54:41.880Z,8.43
2018-03-23T10:57:10.230Z,10.37
2018-03-23T10:59:37.787Z,9.30
2018-03-23T11:02:07.325Z,12.37
2018-03-23T11:04:35.671Z,4.80
2018-03-23T11:07:03.225Z,4.57
2018-03-23T11:09:30.774Z,5.20
2018-03-23T11:11:58.347Z,5.10
2018-03-23T11:14:25.902Z,5.07
2018-03-23T11:16:53.445Z,5.37
2018-03-23T11:19:21.026Z,4.90
2018-03-23T11:21:48.576Z,5.27
2018-03-23T11:24:16.147Z,4.90
2018-03-23T11:26:43.682Z,5.00
2018-03-23T11:29:11.296Z,6.77
2018-03-23T11:31:39.650Z,4.83
2018-03-23T11:34:07.274Z,5.40
2018-03-23T11:36:34.850Z,5.83
2018-03-23T11:39:02.403Z,6.70
2018-03-23T11:41:29.968Z,5.83
2018-03-23T11:43:57.539Z,6.30
2018-03-23T11:46:25.100Z,6.07
2018-03-23T11:48:52.666Z,5.60
2018-03-23T11:51:20.220Z,8.47
2018-03-23T11:53:47.785Z,6.10
2018-03-23T11:56:15.391Z,8.50
2018-03-23T11:58:42.954Z,8.37
2018-03-23T12:01:10.543Z,8.90
2018-03-23T12:03:38.089Z,9.33
2018-03-23T12:06:06.902Z,8.35
2018-03-23T12:08:34.478Z,9.10
2018-03-23T12:11:02.068Z,10.93
2018-03-23T12:13:30.418Z,9.77
2018-03-23T12:15:57.978Z,11.70
2018-03-23T12:18:25.537Z,8.60
2018-03-23T12:20:54.138Z,10.13
2018-03-23T12:23:21.692Z,13.57
2018-03-23T12:25:49.272Z,12.20
2018-03-23T12:28:17.601Z,11.73
2018-03-23T12:30:50.974Z,11.83
2018-03-23T12:33:31.476Z,9.10
2018-03-23T12:35:59.867Z,9.20
2018-03-23T12:38:27.452Z,8.20
2018-03-23T12:40:55.758Z,9.07
2018-03-23T12:43:23.328Z,10.23
2018-03-23T12:45:50.858Z,9.17
2018-03-23T12:48:19.194Z,8.77
2018-03-23T12:50:46.751Z,10.63
2018-03-23T12:53:14.300Z,9.13
2018-03-23T12:55:41.887Z,13.50
2018-03-23T13:01:14.964Z,8.70
2018-03-23T13:03:42.556Z,9.87
2018-03-23T13:06:10.116Z,10.67
2018-03-23T13:08:37.664Z,10.27
2018-03-23T13:11:05.207Z,11.23
2018-03-23T13:13:32.778Z,12.30
2018-03-23T13:16:00.337Z,12.03
2018-03-23T13:18:27.916Z,11.73
2018-03-23T13:20:55.773Z,11.77
2018-03-23T13:23:23.336Z,13.00
2018-03-23T13:25:54.591Z,14.23
2018-03-23T13:28:22.138Z,13.80
2018-03-23T13:30:55.603Z,12.97
2018-03-23T13:33:23.162Z,12.53
2018-03-23T13:35:50.703Z,10.13
2018-03-23T13:38:19.045Z,10.57
2018-03-23T13:40:46.601Z,20.10
2018-03-23T13:43:14.197Z,10.07
2018-03-23T13:45:42.531Z,10.83
2018-03-23T13:48:11.104Z,9.35
2018-03-23T13:50:38.664Z,9.27
2018-03-23T13:53:06.217Z,14.17
2018-03-23T13:55:33.801Z,10.03
2018-03-23T13:58:01.347Z,8.30
2018-03-23T14:00:34.671Z,8.73
2018-03-23T14:03:02.221Z,9.70
2018-03-23T14:05:29.763Z,10.77
2018-03-23T14:07:57.355Z,44.00
2018-03-23T14:10:24.905Z,11.27
2018-03-23T14:12:52.472Z,10.63
2018-03-23T14:15:20.014Z,9.83
2018-03-23T14:17:48.337Z,9.87
2018-03-23T14:20:16.671Z,9.30
2018-03-23T14:22:44.219Z,15.20
2018-03-23T14:25:22.000Z,9.97
2018-03-23T14:27:51.121Z,9.80
2018-03-23T14:30:18.669Z,9.50
2018-03-23T14:32:46.251Z,10.27
2018-03-23T14:35:13.791Z,10.63
2018-03-23T14:37:41.352Z,10.90
2018-03-23T14:40:08.908Z,9.73
2018-03-23T14:42:36.459Z,10.23
2018-03-23T14:45:04.037Z,9.73
2018-03-23T14:47:31.584Z,15.57
2018-03-23T14:49:59.163Z,11.47
2018-03-23T14:55:20.268Z,10.47
2018-03-23T14:57:47.810Z,12.33
2018-03-23T15:03:15.931Z,8.30
2018-03-23T15:05:43.508Z,7.73
2018-03-23T15:08:11.058Z,6.30
2018-03-23T15:10:49.760Z,7.37
2018-03-23T15:13:19.308Z,7.87
2018-03-23T15:15:48.796Z,7.40
2018-03-23T15:18:16.355Z,7.03
2018-03-23T15:21:03.391Z,34.67
2018-03-23T15:23:38.156Z,95.60
2018-03-23T15:26:06.495Z,45.63
2018-03-23T15:28:34.026Z,13.23
2018-03-23T15:31:01.595Z,8.63
2018-03-23T15:33:29.159Z,6.97
2018-03-23T15:35:56.708Z,8.43
2018-03-23T15:38:24.277Z,8.27
2018-03-23T15:40:51.832Z,13.40
2018-03-23T15:43:19.386Z,8.43
2018-03-23T15:45:46.963Z,9.33
2018-03-23T15:48:16.196Z,8.70
2018-03-23T15:50:43.770Z,9.93
2018-03-23T15:53:12.093Z,10.13
2018-03-23T15:55:39.642Z,11.70
2018-03-23T15:58:07.223Z,14.90
2018-03-23T16:00:51.945Z,10.93
2018-03-23T16:03:24.283Z,22.40
2018-03-23T16:05:51.831Z,9.50
2018-03-23T16:08:26.411Z,9.43
2018-03-23T16:10:53.979Z,8.67
2018-03-23T16:13:27.884Z,8.80
2018-03-23T16:15:55.477Z,22.43
2018-03-23T16:18:23.026Z,9.53
2018-03-23T16:20:52.516Z,8.20
2018-03-23T16:23:26.303Z,9.33
2018-03-23T16:25:54.623Z,8.47
2018-03-23T16:28:22.178Z,38.13
2018-03-23T16:31:09.626Z,27.83
2018-03-23T16:33:47.072Z,9.97
2018-03-23T16:36:14.675Z,25.33
2018-03-23T16:38:42.221Z,17.50
2018-03-23T16:41:09.782Z,36.80
2018-03-23T16:43:44.000Z,19.43
2018-03-23T16:46:13.489Z,10.13
2018-03-23T16:48:50.884Z,10.90
2018-03-23T16:51:18.425Z,9.90
2018-03-23T16:53:46.932Z,19.83
2018-03-23T16:56:14.599Z,24.17
2018-03-23T16:58:42.175Z,11.10
2018-03-23T17:01:11.465Z,13.63
2018-03-23T17:06:32.273Z,53.13
2018-03-23T17:09:04.569Z,16.77
2018-03-23T17:11:35.497Z,74.93
2018-03-23T17:14:03.078Z,30.50
2018-03-23T17:16:30.663Z,124.50
2018-03-23T17:19:20.733Z,15.30
2018-03-23T17:21:48.343Z,15.53
2018-03-23T17:24:15.903Z,46.60
2018-03-23T17:26:43.462Z,28.13
2018-03-23T17:29:11.051Z,18.57
2018-03-23T17:31:38.627Z,28.13
2018-03-23T17:34:11.911Z,14.17
2018-03-23T17:36:40.239Z,17.27
2018-03-23T17:39:08.553Z,16.33
2018-03-23T17:41:36.122Z,14.80
2018-03-23T17:44:03.755Z,14.63
2018-03-23T17:55:11.490Z,24.30
2018-03-23T17:57:39.047Z,22.70
2018-03-23T18:00:07.383Z,25.27
2018-03-23T18:02:34.952Z,55.00
2018-03-23T18:05:02.561Z,22.10
2018-03-23T18:07:30.892Z,18.73
2018-03-23T18:09:58.472Z,20.43
2018-03-23T18:12:26.040Z,20.00
2018-03-23T18:14:53.625Z,19.30
2018-03-23T18:17:33.614Z,15.97
2018-03-23T18:20:01.195Z,19.40
2018-03-23T18:22:28.780Z,21.83
2018-03-23T18:24:57.108Z,16.47
2018-03-23T18:27:24.662Z,15.10
2018-03-23T18:29:52.251Z,20.80
2018-03-23T18:32:19.823Z,29.70
2018-03-23T18:34:47.399Z,33.17
2018-03-23T18:37:15.718Z,22.90
2018-03-23T18:39:43.266Z,19.37
2018-03-23T18:42:10.844Z,15.37
2018-03-23T18:44:38.385Z,19.90
2018-03-23T18:47:05.954Z,21.43
2018-03-23T18:49:33.506Z,17.60
2018-03-23T18:52:01.060Z,17.03
2018-03-23T18:54:31.424Z,18.30
2018-03-23T18:56:58.990Z,19.33
2018-03-23T18:59:26.569Z,16.77
2018-03-23T19:01:54.114Z,16.37
2018-03-23T19:04:21.670Z,17.60
2018-03-23T19:06:49.242Z,17.50
2018-03-23T19:09:16.788Z,18.33
2018-03-23T19:11:44.367Z,19.30
2018-03-23T19:14:11.920Z,19.20
2018-03-23T19:16:39.504Z,20.50
2018-03-23T19:19:11.871Z,19.40
2018-03-23T19:21:39.478Z,21.87
2018-03-23T19:24:07.059Z,21.30
2018-03-23T19:26:34.611Z,20.90
2018-03-23T19:29:02.170Z,18.17
2018-03-23T19:31:29.764Z,19.90
2018-03-23T19:33:57.322Z,18.90
2018-03-23T19:36:25.379Z,20.70
2018-03-23T19:38:52.936Z,19.70
2018-03-23T19:41:24.132Z,18.63
2018-03-23T19:43:52.474Z,21.50
2018-03-23T19:46:20.037Z,18.53
2018-03-23T19:48:47.662Z,23.00
2018-03-23T19:51:15.232Z,21.50
2018-03-23T19:53:42.802Z,21.23
2018-03-23T19:56:20.920Z,21.13
2018-03-23T19:58:48.940Z,22.67
2018-03-23T20:01:17.289Z,23.23
2018-03-23T20:03:44.873Z,22.20
2018-03-23T20:06:13.190Z,21.40
2018-03-23T20:08:51.488Z,23.27
2018-03-23T20:11:38.650Z,23.87
2018-03-23T20:14:10.979Z,20.33
2018-03-23T20:16:40.551Z,22.83
2018-03-23T20:19:25.644Z,26.00
2018-03-23T20:21:53.235Z,23.87
2018-03-23T20:24:26.544Z,24.03
2018-03-23T20:26:54.109Z,27.80
2018-03-23T20:29:34.832Z,25.20
2018-03-23T20:32:22.354Z,24.90
2018-03-23T20:35:10.169Z,29.73
2018-03-23T20:40:34.654Z,41.83
2018-03-23T20:43:02.254Z,36.47
2018-03-23T20:45:30.597Z,43.23
2018-03-23T20:47:58.195Z,34.50
2018-03-23T20:50:26.524Z,27.53
2018-03-23T20:52:54.132Z,31.00
2018-03-23T20:55:22.474Z,34.30
2018-03-23T20:57:50.051Z,30.03
2018-03-23T21:00:17.649Z,28.67
2018-03-23T21:02:45.252Z,31.47
2018-03-23T21:05:12.828Z,29.50
2018-03-23T21:07:53.191Z,32.43
2018-03-23T21:10:20.805Z,32.37
2018-03-23T21:12:48.378Z,32.30
2018-03-23T21:15:15.971Z,30.40
2018-03-23T21:17:43.522Z,32.17
2018-03-23T21:20:11.063Z,32.77
2018-03-23T21:22:38.622Z,31.23
2018-03-23T21:25:06.175Z,32.37
2018-03-23T21:27:33.743Z,33.70
2018-03-23T21:30:01.315Z,33.93
2018-03-23T21:32:28.878Z,31.80
2018-03-23T21:34:56.427Z,35.90
2018-03-23T21:37:23.988Z,30.30
2018-03-23T21:39:51.572Z,36.60
2018-03-23T21:42:19.127Z,36.63
2018-03-23T21:44:46.708Z,36.07
2018-03-23T21:47:14.259Z,38.20
2018-03-23T21:49:42.625Z,36.43
2018-03-23T21:52:10.264Z,36.87
2018-03-23T21:54:37.820Z,36.83
2018-03-23T21:57:05.402Z,32.93
2018-03-23T21:59:32.984Z,35.13
2018-03-23T22:02:00.550Z,35.13
2018-03-23T22:04:28.108Z,38.83
2018-03-23T22:06:55.697Z,37.40
2018-03-23T22:09:24.050Z,41.77
2018-03-23T22:11:51.596Z,37.50
2018-03-23T22:14:19.168Z,39.67
2018-03-23T22:16:59.388Z,32.80
2018-03-23T22:19:26.942Z,37.40
2018-03-23T22:21:54.508Z,34.93
2018-03-23T22:24:22.093Z,41.23
2018-03-23T22:26:50.436Z,33.90
2018-03-23T22:29:18.011Z,32.93
2018-03-23T22:31:45.560Z,39.10
2018-03-23T22:34:13.131Z,37.50
2018-03-23T22:36:40.708Z,37.53
2018-03-23T22:39:08.262Z,39.97
2018-03-23T22:41:35.831Z,35.90
2018-03-23T22:44:03.385Z,33.17
2018-03-23T22:46:30.930Z,37.20
2018-03-23T22:48:58.494Z,34.10
2018-03-23T22:51:26.153Z,36.63
2018-03-23T22:53:53.735Z,34.27
2018-03-23T22:56:21.290Z,36.70
2018-03-23T22:58:48.852Z,36.40
2018-03-23T23:01:16.423Z,35.33
2018-03-23T23:03:43.974Z,36.10
2018-03-23T23:06:11.559Z,29.80
2018-03-23T23:08:39.118Z,33.90
2018-03-23T23:11:06.662Z,31.73
2018-03-23T23:13:35.073Z,33.73
2018-03-23T23:16:02.703Z,31.80
2018-03-23T23:18:30.271Z,34.17
2018-03-23T23:20:57.812Z,32.93
2018-03-23T23:23:25.355Z,32.17
2018-03-23T23:25:52.938Z,34.50
2018-03-23T23:28:20.495Z,31.77
2018-03-23T23:30:48.048Z,34.93
2018-03-23T23:33:16.384Z,30.43
2018-03-23T23:35:44.708Z,33.87
2018-03-23T23:38:12.272Z,35.07
2018-03-23T23:40:39.873Z,33.07
2018-03-23T23:43:08.189Z,27.90
2018-03-23T23:45:35.787Z,34.80
2018-03-23T23:48:03.340Z,32.87
2018-03-23T23:50:30.897Z,33.27
2018-03-23T23:52:58.449Z,33.23
2018-03-23T23:55:26.029Z,36.60
2018-03-23T23:57:53.583Z,33.13
